createdAt,value
2022-11-29T00:01:42.713Z,13.09
2022-11-29T00:04:11.454Z,13.17
2022-11-29T00:06:40.940Z,13.21
2022-11-29T00:09:12.247Z,13.28
2022-11-29T00:12:00.437Z,13.27
2022-11-29T00:14:29.553Z,13.18
2022-11-29T00:17:01.988Z,12.97
2022-11-29T00:19:32.293Z,12.94
2022-11-29T00:22:01.151Z,12.74
2022-11-29T00:24:31.678Z,12.58
2022-11-29T00:27:00.604Z,12.73
2022-11-29T00:29:29.981Z,12.93
2022-11-29T00:31:59.749Z,12.94
2022-11-29T00:34:28.799Z,13.01
2022-11-29T00:36:57.410Z,13.17
2022-11-29T00:39:25.959Z,13.23
2022-11-29T00:41:54.817Z,13.30
2022-11-29T00:44:23.198Z,13.32
2022-11-29T00:46:51.606Z,13.21
2022-11-29T00:49:20.077Z,12.93
2022-11-29T00:51:48.501Z,12.73
2022-11-29T00:54:17.031Z,12.86
2022-11-29T00:56:45.442Z,12.88
2022-11-29T00:59:13.833Z,13.04
2022-11-29T01:01:42.295Z,13.15
2022-11-29T01:04:10.696Z,13.21
2022-11-29T01:06:39.220Z,13.28
2022-11-29T01:09:07.626Z,13.15
2022-11-29T01:11:36.067Z,13.04
2022-11-29T01:14:04.541Z,13.11
2022-11-29T01:16:33.755Z,13.17
2022-11-29T01:19:02.612Z,12.68
2022-11-29T01:21:30.970Z,12.65
2022-11-29T01:24:00.806Z,12.71
2022-11-29T01:26:31.177Z,12.67
2022-11-29T01:28:59.756Z,12.60
2022-11-29T01:31:31.341Z,12.75
2022-11-29T01:34:02.479Z,12.86
2022-11-29T01:36:31.573Z,12.84
2022-11-29T01:39:01.644Z,12.74
2022-11-29T01:41:32.454Z,12.74
2022-11-29T01:44:26.897Z,12.82
2022-11-29T01:46:56.739Z,12.74
2022-11-29T01:49:47.308Z,12.94
2022-11-29T01:52:19.200Z,12.97
2022-11-29T01:54:50.834Z,12.67
2022-11-29T01:57:20.286Z,12.68
2022-11-29T01:59:52.402Z,12.77
2022-11-29T02:02:24.593Z,12.72
2022-11-29T02:04:53.143Z,12.63
2022-11-29T02:07:21.648Z,12.70
2022-11-29T02:09:50.024Z,12.72
2022-11-29T02:12:33.655Z,12.54
2022-11-29T02:15:24.472Z,12.68
2022-11-29T02:18:21.013Z,12.67
2022-11-29T02:21:02.413Z,12.57
2022-11-29T02:23:45.959Z,12.76
2022-11-29T02:26:33.109Z,12.81
2022-11-29T02:29:31.683Z,12.71
2022-11-29T02:32:21.795Z,12.48
2022-11-29T02:34:56.900Z,12.45
2022-11-29T02:37:56.797Z,12.49
2022-11-29T02:40:39.272Z,12.59
2022-11-29T02:43:16.777Z,12.61
2022-11-29T02:46:03.974Z,12.52
2022-11-29T02:48:52.391Z,12.56
2022-11-29T02:51:32.666Z,12.67
2022-11-29T02:54:16.763Z,12.76
2022-11-29T02:56:58.889Z,12.50
2022-11-29T03:00:03.802Z,12.32
2022-11-29T03:02:54.093Z,12.10
2022-11-29T03:05:47.058Z,12.11
2022-11-29T03:08:34.042Z,12.16
2022-11-29T03:11:22.011Z,12.23
2022-11-29T03:14:06.517Z,12.31
2022-11-29T03:16:54.584Z,12.39
2022-11-29T03:19:53.399Z,12.48
2022-11-29T03:22:40.734Z,12.43
2022-11-29T03:25:17.702Z,12.21
2022-11-29T03:27:50.207Z,12.00
2022-11-29T03:30:19.938Z,11.97
2022-11-29T03:33:07.952Z,12.06
2022-11-29T03:36:14.877Z,12.30
2022-11-29T03:38:46.414Z,12.21
2022-11-29T03:41:23.490Z,12.06
2022-11-29T03:44:12.058Z,11.85
2022-11-29T03:46:54.609Z,11.80
2022-11-29T03:49:31.008Z,11.97
2022-11-29T03:52:35.721Z,12.11
2022-11-29T03:55:30.904Z,11.95
2022-11-29T03:58:20.294Z,12.07
2022-11-29T04:00:48.643Z,12.14
2022-11-29T04:03:20.031Z,12.00
2022-11-29T04:06:10.820Z,12.10
2022-11-29T04:09:00.262Z,11.89
2022-11-29T04:11:59.839Z,11.78
2022-11-29T04:14:54.565Z,11.51
2022-11-29T04:17:41.439Z,11.31
2022-11-29T04:20:29.601Z,11.38
2022-11-29T04:23:22.986Z,11.61
2022-11-29T04:26:12.946Z,11.51
2022-11-29T04:29:03.600Z,11.59
2022-11-29T04:32:00.009Z,11.55
2022-11-29T04:34:53.788Z,11.63
2022-11-29T04:37:47.045Z,11.77
2022-11-29T04:40:24.441Z,11.62
2022-11-29T04:43:11.334Z,11.64
2022-11-29T04:45:59.371Z,11.69
2022-11-29T04:48:37.396Z,11.77
2022-11-29T04:51:30.209Z,11.55
2022-11-29T04:54:15.482Z,11.72
2022-11-29T04:56:50.772Z,11.84
2022-11-29T04:59:40.726Z,11.71
2022-11-29T05:02:37.376Z,12.03
2022-11-29T05:05:41.092Z,12.14
2022-11-29T05:08:27.145Z,12.04
2022-11-29T05:11:34.300Z,11.92
2022-11-29T05:14:51.083Z,11.89
2022-11-29T05:17:38.326Z,12.01
2022-11-29T05:20:31.723Z,12.07
2022-11-29T05:23:34.360Z,11.95
2022-11-29T05:26:15.872Z,11.87
2022-11-29T05:28:57.476Z,11.75
2022-11-29T05:31:58.637Z,11.85
2022-11-29T05:34:54.620Z,11.93
2022-11-29T05:37:44.943Z,11.72
2022-11-29T05:40:13.289Z,11.56
2022-11-29T05:42:59.479Z,11.51
2022-11-29T05:45:35.462Z,11.65
2022-11-29T05:48:25.329Z,11.55
2022-11-29T05:51:37.098Z,11.61
2022-11-29T05:54:08.383Z,11.37
2022-11-29T05:56:48.342Z,11.42
2022-11-29T05:59:24.565Z,11.20
2022-11-29T06:02:09.522Z,11.29
2022-11-29T06:04:57.242Z,11.02
2022-11-29T06:07:58.967Z,11.18
2022-11-29T06:10:39.878Z,11.31
2022-11-29T06:13:26.528Z,11.24
2022-11-29T06:16:22.939Z,11.16
2022-11-29T06:19:19.267Z,11.36
2022-11-29T06:22:24.316Z,11.42
2022-11-29T06:25:11.650Z,11.47
2022-11-29T06:28:18.192Z,11.57
2022-11-29T06:31:03.379Z,11.57
2022-11-29T06:33:44.501Z,11.60
2022-11-29T06:36:25.145Z,11.82
2022-11-29T06:38:53.842Z,11.86
2022-11-29T06:41:24.190Z,11.78
2022-11-29T06:43:53.032Z,11.47
2022-11-29T06:46:47.915Z,11.63
2022-11-29T06:49:41.120Z,11.44
2022-11-29T06:52:23.019Z,11.53
2022-11-29T06:55:06.154Z,11.60
2022-11-29T06:57:46.820Z,11.72
2022-11-29T07:00:20.356Z,11.86
2022-11-29T07:02:51.668Z,11.84
2022-11-29T07:05:34.609Z,12.01
2022-11-29T07:08:06.724Z,11.98
2022-11-29T07:10:37.665Z,11.99
2022-11-29T07:13:06.681Z,12.04
2022-11-29T07:15:37.464Z,12.07
2022-11-29T07:18:51.055Z,12.16
2022-11-29T07:21:44.212Z,12.18
2022-11-29T07:24:27.950Z,12.14
2022-11-29T07:27:05.403Z,12.08
2022-11-29T07:29:57.166Z,12.00
2022-11-29T07:33:08.109Z,11.95
2022-11-29T07:35:55.362Z,11.85
2022-11-29T07:38:55.887Z,11.92
2022-11-29T07:41:36.597Z,11.87
2022-11-29T07:44:30.203Z,11.91
2022-11-29T07:46:58.767Z,11.82
2022-11-29T07:49:27.326Z,11.95
2022-11-29T07:51:56.014Z,11.83
2022-11-29T07:54:24.689Z,11.53
2022-11-29T07:56:53.122Z,11.49
2022-11-29T07:59:21.762Z,11.35
2022-11-29T08:01:50.211Z,11.13
2022-11-29T08:04:18.693Z,11.24
2022-11-29T08:06:47.170Z,11.17
2022-11-29T08:09:15.710Z,11.13
2022-11-29T08:11:44.853Z,11.09
2022-11-29T08:14:13.243Z,11.19
2022-11-29T08:16:41.867Z,11.27
2022-11-29T08:19:10.392Z,11.22
2022-11-29T08:21:38.845Z,11.30
2022-11-29T08:24:07.376Z,11.38
2022-11-29T08:26:35.847Z,11.39
2022-11-29T08:29:04.369Z,11.02
2022-11-29T08:31:32.937Z,11.19
2022-11-29T08:34:01.826Z,11.39
2022-11-29T08:36:30.491Z,11.44
2022-11-29T08:39:05.997Z,11.58
2022-11-29T08:41:37.493Z,11.70
2022-11-29T08:44:06.449Z,11.57
2022-11-29T08:46:53.846Z,11.33
2022-11-29T08:49:22.295Z,11.28
2022-11-29T08:52:13.474Z,10.91
2022-11-29T08:54:41.962Z,10.58
2022-11-29T08:57:38.396Z,10.70
2022-11-29T08:59:59.596Z,11.05
2022-11-29T09:02:28.121Z,11.23
2022-11-29T09:04:56.847Z,11.44
2022-11-29T09:07:25.320Z,11.60
2022-11-29T09:09:53.814Z,11.67
2022-11-29T09:12:22.354Z,11.62
2022-11-29T09:14:50.746Z,11.69
2022-11-29T09:17:19.124Z,11.67
2022-11-29T09:19:47.557Z,11.75
2022-11-29T09:22:15.974Z,11.89
2022-11-29T09:24:46.474Z,11.97
2022-11-29T09:27:15.154Z,12.09
2022-11-29T09:29:43.639Z,12.27
2022-11-29T09:32:12.022Z,12.34
2022-11-29T09:34:42.189Z,12.38
2022-11-29T09:37:10.837Z,12.17
2022-11-29T09:39:41.536Z,12.05
2022-11-29T09:42:23.908Z,12.12
2022-11-29T09:45:10.702Z,12.15
2022-11-29T09:48:16.159Z,11.97
2022-11-29T09:51:23.470Z,11.85
2022-11-29T09:54:10.579Z,11.72
2022-11-29T09:56:46.974Z,11.59
2022-11-29T09:59:32.750Z,11.66
2022-11-29T10:02:15.871Z,11.52
2022-11-29T10:04:53.496Z,11.34
2022-11-29T10:07:30.814Z,10.95
2022-11-29T10:10:33.377Z,11.29
2022-11-29T10:13:23.814Z,11.39
2022-11-29T10:16:04.360Z,11.38
2022-11-29T10:18:44.030Z,11.63
2022-11-29T10:21:25.549Z,11.47
2022-11-29T10:24:01.435Z,10.40
2022-11-29T10:26:34.984Z,11.32
2022-11-29T10:29:04.980Z,11.31
2022-11-29T10:31:37.762Z,11.39
2022-11-29T10:34:32.521Z,11.31
2022-11-29T10:37:02.695Z,11.10
2022-11-29T10:39:49.003Z,11.12
2022-11-29T10:42:41.877Z,11.53
2022-11-29T10:45:30.708Z,11.76
2022-11-29T10:48:04.991Z,11.55
2022-11-29T10:50:36.224Z,11.63
2022-11-29T10:53:14.331Z,11.65
2022-11-29T10:56:02.485Z,11.79
2022-11-29T10:58:31.834Z,11.79
2022-11-29T11:01:02.267Z,11.72
2022-11-29T11:03:38.510Z,11.60
2022-11-29T11:06:19.358Z,11.52
2022-11-29T11:08:52.048Z,11.74
2022-11-29T11:11:39.372Z,11.98
2022-11-29T11:14:27.364Z,11.77
2022-11-29T11:16:56.315Z,11.84
2022-11-29T11:19:32.090Z,12.01
2022-11-29T11:22:03.946Z,12.09
2022-11-29T11:24:37.479Z,12.00
2022-11-29T11:27:06.132Z,12.25
2022-11-29T11:29:39.342Z,12.18
2022-11-29T11:32:17.033Z,11.94
2022-11-29T11:34:57.215Z,11.89
2022-11-29T11:37:28.726Z,11.84
2022-11-29T11:40:00.225Z,11.96
2022-11-29T11:42:40.367Z,11.96
2022-11-29T11:45:22.912Z,12.10
2022-11-29T11:47:53.890Z,12.03
2022-11-29T11:50:25.289Z,12.10
2022-11-29T11:52:57.371Z,12.01
2022-11-29T11:55:33.482Z,11.85
2022-11-29T11:58:09.774Z,11.96
2022-11-29T12:01:08.121Z,12.00
2022-11-29T12:03:48.435Z,12.01
2022-11-29T12:06:37.336Z,12.25
2022-11-29T12:09:46.299Z,12.15
2022-11-29T12:12:26.049Z,11.89
2022-11-29T12:15:21.914Z,11.42
2022-11-29T12:18:24.635Z,11.77
2022-11-29T12:20:53.169Z,11.89
2022-11-29T12:23:35.336Z,11.69
2022-11-29T12:26:55.222Z,12.00
2022-11-29T12:29:16.627Z,11.85
2022-11-29T12:32:00.314Z,11.95
2022-11-29T12:35:07.215Z,11.61
2022-11-29T12:37:48.356Z,11.74
2022-11-29T12:40:54.497Z,12.00
2022-11-29T12:44:07.960Z,11.91
2022-11-29T12:46:38.155Z,12.12
2022-11-29T12:49:15.742Z,12.25
2022-11-29T12:51:54.253Z,12.39
2022-11-29T12:54:56.936Z,12.52
2022-11-29T12:57:30.430Z,12.58
2022-11-29T13:00:21.035Z,12.62
2022-11-29T13:03:14.539Z,12.39
2022-11-29T13:06:37.372Z,12.11
2022-11-29T13:09:24.418Z,12.33
2022-11-29T13:11:58.360Z,12.40
2022-11-29T13:14:44.510Z,12.43
2022-11-29T13:17:48.628Z,12.44
2022-11-29T13:20:39.231Z,12.41
2022-11-29T13:24:07.492Z,12.38
2022-11-29T13:26:30.536Z,12.32
2022-11-29T13:29:01.136Z,12.17
2022-11-29T13:31:30.443Z,12.12
2022-11-29T13:34:01.877Z,12.36
2022-11-29T13:36:59.796Z,12.58
2022-11-29T13:39:46.509Z,12.27
2022-11-29T13:42:36.779Z,12.46
2022-11-29T13:45:26.977Z,12.27
2022-11-29T13:48:00.635Z,12.30
2022-11-29T13:50:35.092Z,12.02
2022-11-29T13:53:11.679Z,11.98
2022-11-29T13:55:49.549Z,12.25
2022-11-29T13:58:18.527Z,12.33
2022-11-29T14:00:49.783Z,12.12
2022-11-29T14:03:24.139Z,12.31
2022-11-29T14:06:22.198Z,12.54
2022-11-29T14:09:18.984Z,12.27
2022-11-29T14:11:51.228Z,12.38
2022-11-29T14:14:25.943Z,12.23
2022-11-29T14:17:01.229Z,12.50
2022-11-29T14:19:34.531Z,12.43
2022-11-29T14:22:03.011Z,12.59
2022-11-29T14:24:35.356Z,12.54
2022-11-29T14:27:06.959Z,12.58
2022-11-29T14:29:47.330Z,12.60
2022-11-29T14:32:46.209Z,12.54
2022-11-29T14:35:32.347Z,12.57
2022-11-29T14:38:23.082Z,12.73
2022-11-29T14:41:06.432Z,12.69
2022-11-29T14:43:41.587Z,12.77
2022-11-29T14:46:16.129Z,12.84
2022-11-29T14:48:58.811Z,12.61
2022-11-29T14:51:35.999Z,12.64
2022-11-29T14:54:15.414Z,12.63
2022-11-29T14:56:45.489Z,12.72
2022-11-29T14:59:42.568Z,12.79
2022-11-29T15:02:26.923Z,12.83
2022-11-29T15:04:57.390Z,12.53
2022-11-29T15:07:31.868Z,12.50
2022-11-29T15:10:04.812Z,12.62
2022-11-29T15:12:37.489Z,12.77
2022-11-29T15:15:18.081Z,12.99
2022-11-29T15:18:18.912Z,13.09
2022-11-29T15:21:03.729Z,13.18
2022-11-29T15:23:41.773Z,13.13
2022-11-29T15:26:28.338Z,13.38
2022-11-29T15:29:18.205Z,13.41
2022-11-29T15:31:52.273Z,13.45
2022-11-29T15:34:43.467Z,13.59
2022-11-29T15:37:23.082Z,13.38
2022-11-29T15:40:05.863Z,13.15
2022-11-29T15:42:44.693Z,13.20
2022-11-29T15:45:38.199Z,13.00
2022-11-29T15:48:20.764Z,12.90
2022-11-29T15:51:15.649Z,13.00
2022-11-29T15:54:12.057Z,13.05
2022-11-29T15:57:04.089Z,13.15
2022-11-29T16:00:10.771Z,13.21
2022-11-29T16:02:48.073Z,13.26
2022-11-29T16:05:22.439Z,13.24
2022-11-29T16:07:54.637Z,13.27
2022-11-29T16:10:33.573Z,13.21
2022-11-29T16:13:31.378Z,13.05
2022-11-29T16:16:11.836Z,12.97
2022-11-29T16:18:42.391Z,12.97
2022-11-29T16:21:29.442Z,13.16
2022-11-29T16:23:58.891Z,13.18
2022-11-29T16:26:34.418Z,13.08
2022-11-29T16:29:03.514Z,13.12
2022-11-29T16:31:35.074Z,12.94
2022-11-29T16:34:09.179Z,12.80
2022-11-29T16:36:37.661Z,12.93
2022-11-29T16:39:16.646Z,12.87
2022-11-29T16:42:02.550Z,12.80
2022-11-29T16:44:40.032Z,12.51
2022-11-29T16:47:29.860Z,12.82
2022-11-29T16:50:19.087Z,12.85
2022-11-29T16:52:52.018Z,12.91
2022-11-29T16:55:23.865Z,12.88
2022-11-29T16:57:52.488Z,13.05
2022-11-29T17:00:30.537Z,13.03
2022-11-29T17:02:59.579Z,13.09
2022-11-29T17:05:28.205Z,13.02
2022-11-29T17:07:56.801Z,12.95
2022-11-29T17:10:25.724Z,12.96
2022-11-29T17:12:54.194Z,12.98
2022-11-29T17:15:22.610Z,13.01
2022-11-29T17:17:50.934Z,13.10
2022-11-29T17:20:19.360Z,13.08
2022-11-29T17:22:47.796Z,12.98
2022-11-29T17:25:16.269Z,12.91
2022-11-29T17:27:44.748Z,12.73
2022-11-29T17:30:13.646Z,12.65
2022-11-29T17:32:42.070Z,12.72
2022-11-29T17:35:10.524Z,12.85
2022-11-29T17:37:38.832Z,12.74
2022-11-29T17:40:08.075Z,12.69
2022-11-29T17:42:36.514Z,12.73
2022-11-29T17:45:05.235Z,12.73
2022-11-29T17:47:33.594Z,12.91
2022-11-29T17:50:02.068Z,12.77
2022-11-29T17:52:31.387Z,12.84
2022-11-29T17:54:59.863Z,12.97
2022-11-29T17:57:28.307Z,13.02
2022-11-29T17:59:56.691Z,13.00
2022-11-29T18:02:25.188Z,12.98
2022-11-29T18:04:53.654Z,13.06
2022-11-29T18:07:22.126Z,13.07
2022-11-29T18:09:51.012Z,13.07
2022-11-29T18:12:20.115Z,12.87
2022-11-29T18:14:50.727Z,12.83
2022-11-29T18:17:19.161Z,12.97
2022-11-29T18:19:47.827Z,13.05
2022-11-29T18:22:16.563Z,13.11
2022-11-29T18:24:44.995Z,12.99
2022-11-29T18:27:13.482Z,13.02
2022-11-29T18:29:41.848Z,13.10
2022-11-29T18:32:10.278Z,13.15
2022-11-29T18:34:38.723Z,13.22
2022-11-29T18:37:12.321Z,13.15
2022-11-29T18:39:44.339Z,13.02
2022-11-29T18:42:13.006Z,12.96
2022-11-29T18:44:41.425Z,13.05
2022-11-29T18:47:09.760Z,13.05
2022-11-29T18:49:38.187Z,12.83
2022-11-29T18:52:06.692Z,12.82
2022-11-29T18:54:35.229Z,12.80
2022-11-29T18:57:03.616Z,12.86
2022-11-29T18:59:32.023Z,12.69
2022-11-29T19:02:00.399Z,12.54
2022-11-29T19:04:28.790Z,12.38
2022-11-29T19:06:57.270Z,12.14
2022-11-29T19:09:25.811Z,12.14
2022-11-29T19:11:54.150Z,11.98
2022-11-29T19:14:22.507Z,11.90
2022-11-29T19:16:50.970Z,12.07
2022-11-29T19:19:19.392Z,12.10
2022-11-29T19:21:48.059Z,12.20
2022-11-29T19:24:18.403Z,12.25
2022-11-29T19:26:48.065Z,12.23
2022-11-29T19:29:17.252Z,12.19
2022-11-29T19:31:45.779Z,12.12
2022-11-29T19:34:14.219Z,11.76
2022-11-29T19:36:43.861Z,11.75
2022-11-29T19:39:15.209Z,11.98
2022-11-29T19:41:46.675Z,12.28
2022-11-29T19:44:15.181Z,12.32
2022-11-29T19:46:46.981Z,12.20
2022-11-29T19:49:15.463Z,12.20
2022-11-29T19:51:43.838Z,12.07
2022-11-29T19:54:12.328Z,11.76
2022-11-29T19:56:40.791Z,11.90
2022-11-29T19:59:09.275Z,12.01
2022-11-29T20:01:41.409Z,12.06
2022-11-29T20:04:13.116Z,12.17
2022-11-29T20:06:41.673Z,12.20
2022-11-29T20:09:11.702Z,12.30
2022-11-29T20:11:40.447Z,12.31
2022-11-29T20:14:11.374Z,12.16
2022-11-29T20:16:40.444Z,11.71
2022-11-29T20:19:14.330Z,11.75
2022-11-29T20:21:45.406Z,11.70
2022-11-29T20:24:15.329Z,11.91
2022-11-29T20:26:46.181Z,11.92
2022-11-29T20:29:15.846Z,11.74
2022-11-29T20:31:50.058Z,11.88
2022-11-29T20:34:20.335Z,11.57
2022-11-29T20:37:07.619Z,11.47
2022-11-29T20:39:49.804Z,11.65
2022-11-29T20:42:31.566Z,11.05
2022-11-29T20:45:06.368Z,11.21
2022-11-29T20:47:37.711Z,11.79
2022-11-29T20:50:06.998Z,12.01
2022-11-29T20:52:48.481Z,11.86
2022-11-29T20:55:17.142Z,11.57
2022-11-29T20:57:45.778Z,11.87
2022-11-29T21:00:15.879Z,11.89
2022-11-29T21:02:44.249Z,11.92
2022-11-29T21:05:12.780Z,11.98
2022-11-29T21:07:41.296Z,12.10
2022-11-29T21:10:10.174Z,12.14
2022-11-29T21:12:39.278Z,11.79
2022-11-29T21:15:10.472Z,11.79
2022-11-29T21:17:40.615Z,11.93
2022-11-29T21:20:18.059Z,11.89
2022-11-29T21:22:53.928Z,11.52
2022-11-29T21:25:31.600Z,11.67
2022-11-29T21:28:00.525Z,11.64
2022-11-29T21:30:29.152Z,11.59
2022-11-29T21:32:57.826Z,11.21
2022-11-29T21:35:26.280Z,11.58
2022-11-29T21:37:58.289Z,11.58
2022-11-29T21:40:27.296Z,11.57
2022-11-29T21:42:56.056Z,11.70
2022-11-29T21:45:24.497Z,11.30
2022-11-29T21:47:52.985Z,11.60
2022-11-29T21:50:21.417Z,11.53
2022-11-29T21:52:52.191Z,11.66
2022-11-29T21:55:20.553Z,11.69
2022-11-29T21:57:48.958Z,11.79
2022-11-29T22:00:17.770Z,11.74
2022-11-29T22:02:46.240Z,11.85
2022-11-29T22:05:14.805Z,11.74
2022-11-29T22:07:43.632Z,11.58
2022-11-29T22:10:13.668Z,11.59
2022-11-29T22:12:51.243Z,11.55
2022-11-29T22:15:24.498Z,11.57
2022-11-29T22:17:53.583Z,11.57
2022-11-29T22:20:22.487Z,11.18
2022-11-29T22:22:54.485Z,11.65
2022-11-29T22:25:25.691Z,11.71
2022-11-29T22:27:54.082Z,11.96
2022-11-29T22:30:22.501Z,11.92
2022-11-29T22:32:50.971Z,11.98
2022-11-29T22:35:19.330Z,11.92
2022-11-29T22:37:47.974Z,11.92
2022-11-29T22:40:16.941Z,12.14
2022-11-29T22:42:45.643Z,12.27
2022-11-29T22:45:14.186Z,12.25
2022-11-29T22:47:42.631Z,12.21
2022-11-29T22:50:11.339Z,12.06
2022-11-29T22:52:39.733Z,12.15
2022-11-29T22:55:08.521Z,12.10
2022-11-29T22:57:36.947Z,12.18
2022-11-29T23:00:06.110Z,12.22
2022-11-29T23:02:34.535Z,12.05
2022-11-29T23:05:02.953Z,12.00
2022-11-29T23:07:31.320Z,11.94
2022-11-29T23:09:59.667Z,11.95
2022-11-29T23:12:28.161Z,12.01
2022-11-29T23:14:57.129Z,12.04
2022-11-29T23:17:25.739Z,12.09
2022-11-29T23:19:54.128Z,11.98
2022-11-29T23:22:22.581Z,12.18
2022-11-29T23:24:51.022Z,12.24
2022-11-29T23:27:19.351Z,12.22
2022-11-29T23:29:47.695Z,12.23
2022-11-29T23:32:16.006Z,12.20
2022-11-29T23:34:44.673Z,11.68
2022-11-29T23:37:13.328Z,11.78
2022-11-29T23:39:41.745Z,12.00
2022-11-29T23:42:10.397Z,12.02
2022-11-29T23:44:38.740Z,11.91
2022-11-29T23:47:07.072Z,11.73
2022-11-29T23:49:35.684Z,11.50
2022-11-29T23:52:04.228Z,11.49
2022-11-29T23:54:32.653Z,11.54
2022-11-29T23:57:01.084Z,11.25
2022-11-29T23:59:29.481Z,11.67
